Time;durP1;ratioP1;P1;durP2;ratioP2;P2;SDS_P1;SDS_P2;PMS_P1;PMS_P2;Temp;Humidity;BMP_temperature;BMP_pressure;BME280_temperature;BME280_humidity;BME280_pressure;Samples;Min_cycle;Max_cycle;Signal;HPM_P1;HPM_P2
2023/08/28 00:01:13;;;;;;;0.65;0.40;;;23.00;98.50;;;;;;5023458;28;45078;-58
2023/08/28 00:03:41;;;;;;;0.47;0.47;;;23.00;98.50;;;;;;5020716;28;45159;-58
2023/08/28 00:06:09;;;;;;;0.63;0.60;;;22.90;98.50;;;;;;5023628;28;45232;-58
2023/08/28 00:08:36;;;;;;;1.88;0.43;;;22.90;98.50;;;;;;5022769;28;45442;-58
2023/08/28 00:11:03;;;;;;;1.10;0.43;;;22.90;98.50;;;;;;5021640;28;45147;-58
2023/08/28 00:13:30;;;;;;;0.77;0.40;;;22.90;98.40;;;;;;5021460;28;45293;-58
2023/08/28 00:15:57;;;;;;;0.50;0.50;;;22.90;98.40;;;;;;5019610;28;44767;-58
2023/08/28 00:18:23;;;;;;;1.20;0.50;;;22.90;98.40;;;;;;5015910;28;45270;-57
2023/08/28 00:20:50;;;;;;;0.43;0.40;;;22.90;98.40;;;;;;5002999;28;45021;-58
2023/08/28 00:23:18;;;;;;;0.63;0.55;;;22.90;98.40;;;;;;5018285;28;45258;-58
2023/08/28 00:25:45;;;;;;;0.82;0.50;;;22.90;98.40;;;;;;5019026;28;44702;-58
2023/08/28 00:28:12;;;;;;;2.65;0.60;;;22.90;98.30;;;;;;5019340;28;47990;-58
2023/08/28 00:30:39;;;;;;;0.57;0.55;;;22.90;98.30;;;;;;5016831;28;45183;-57
2023/08/28 00:33:05;;;;;;;0.57;0.43;;;22.90;98.30;;;;;;5016177;28;45081;-58
2023/08/28 00:35:32;;;;;;;2.40;0.65;;;22.90;98.20;;;;;;5021455;28;44756;-58
2023/08/28 00:37:59;;;;;;;3.58;0.63;;;22.90;98.20;;;;;;5023441;28;46252;-58
2023/08/28 00:40:27;;;;;;;1.42;0.60;;;22.90;98.10;;;;;;5019257;28;45179;-58
2023/08/28 00:42:54;;;;;;;0.45;0.40;;;22.90;98.20;;;;;;5020173;28;44724;-58
2023/08/28 00:45:21;;;;;;;0.60;0.43;;;22.90;98.10;;;;;;5023251;28;45119;-58
2023/08/28 00:47:49;;;;;;;0.45;0.45;;;22.90;98.00;;;;;;5021035;28;45324;-58
2023/08/28 00:50:16;;;;;;;0.75;0.50;;;22.90;98.10;;;;;;5022243;28;44809;-58
2023/08/28 00:52:43;;;;;;;1.83;0.57;;;22.90;98.10;;;;;;5023870;28;45087;-58
2023/08/28 00:55:10;;;;;;;0.45;0.45;;;22.90;98.00;;;;;;5020459;28;45215;-58
2023/08/28 00:57:38;;;;;;;1.23;0.50;;;22.90;98.00;;;;;;5022070;28;47275;-58
2023/08/28 01:00:07;;;;;;;1.50;0.60;;;22.90;98.00;;;;;;5023003;28;45216;-58
2023/08/28 01:02:34;;;;;;;0.50;0.50;;;23.00;98.00;;;;;;5016989;28;45080;-58
2023/08/28 01:05:02;;;;;;;1.15;0.60;;;22.90;97.90;;;;;;5021749;28;45211;-58
2023/08/28 01:07:35;;;;;;;0.57;0.57;;;22.90;98.30;;;;;;5019179;28;47289;-58
2023/08/28 01:10:08;;;;;;;0.65;0.50;;;22.90;97.80;;;;;;5016688;28;45178;-58
2023/08/28 01:12:43;;;;;;;0.57;0.50;;;22.90;97.70;;;;;;5019529;28;44650;-58
2023/08/28 01:15:14;;;;;;;0.70;0.50;;;22.90;97.60;;;;;;5022432;28;45560;-58
2023/08/28 01:17:42;;;;;;;0.70;0.50;;;22.90;97.70;;;;;;5021527;28;47021;-58
2023/08/28 01:20:15;;;;;;;1.75;0.45;;;22.90;97.70;;;;;;5020627;28;45041;-58
2023/08/28 01:22:47;;;;;;;0.50;0.50;;;22.90;97.70;;;;;;5018080;28;45199;-58
2023/08/28 01:25:16;;;;;;;1.45;0.60;;;22.90;97.60;;;;;;5022023;28;45116;-58
2023/08/28 01:27:43;;;;;;;0.70;0.50;;;22.90;97.60;;;;;;5019018;28;45176;-58
2023/08/28 01:30:12;;;;;;;1.08;0.65;;;22.90;97.70;;;;;;5022012;28;45107;-58
2023/08/28 01:32:40;;;;;;;0.75;0.50;;;22.90;97.60;;;;;;5013116;28;45232;-58
2023/08/28 01:35:09;;;;;;;1.17;0.70;;;22.90;97.60;;;;;;5009392;28;45211;-58
2023/08/28 01:37:49;;;;;;;0.50;0.50;;;22.90;97.50;;;;;;5022802;28;47250;-58
2023/08/28 01:40:21;;;;;;;0.63;0.47;;;22.90;97.50;;;;;;5014176;28;45269;-58
2023/08/28 01:42:49;;;;;;;1.05;0.45;;;23.00;97.50;;;;;;5012427;28;45209;-58
2023/08/28 01:45:16;;;;;;;0.75;0.57;;;22.90;97.50;;;;;;5018562;28;45163;-58
2023/08/28 01:47:43;;;;;;;0.80;0.70;;;22.90;97.50;;;;;;5020197;28;45246;-58
2023/08/28 01:50:10;;;;;;;0.38;0.30;;;22.90;97.40;;;;;;5018893;28;45104;-58
2023/08/28 01:52:37;;;;;;;1.50;0.75;;;22.90;97.40;;;;;;5021422;28;45219;-58
2023/08/28 01:55:05;;;;;;;0.45;0.45;;;22.90;97.40;;;;;;5023609;28;45083;-58
2023/08/28 01:57:33;;;;;;;1.38;0.70;;;22.90;97.40;;;;;;5017379;28;45619;-58
2023/08/28 02:00:00;;;;;;;0.68;0.55;;;22.90;97.30;;;;;;5019468;28;45053;-58
2023/08/28 02:02:26;;;;;;;1.13;0.60;;;22.90;97.40;;;;;;5004772;28;44675;-58
2023/08/28 02:04:53;;;;;;;1.73;0.70;;;22.90;97.40;;;;;;5025148;28;45396;-58
2023/08/28 02:07:20;;;;;;;0.57;0.50;;;22.90;97.30;;;;;;5023282;28;48031;-58
2023/08/28 02:09:47;;;;;;;0.47;0.45;;;22.90;97.40;;;;;;5022313;28;44684;-58
2023/08/28 02:12:14;;;;;;;1.65;0.52;;;22.90;97.50;;;;;;5015329;28;45192;-58
2023/08/28 02:14:42;;;;;;;0.85;0.55;;;22.90;97.30;;;;;;5024507;28;45085;-58
2023/08/28 02:17:09;;;;;;;1.15;0.60;;;22.90;97.20;;;;;;5023174;28;47017;-58
2023/08/28 02:19:35;;;;;;;0.95;0.65;;;22.90;97.30;;;;;;5023822;28;45111;-58
2023/08/28 02:22:02;;;;;;;1.50;0.50;;;22.90;97.40;;;;;;5019760;28;45135;-58
2023/08/28 02:24:29;;;;;;;1.52;0.47;;;22.90;97.40;;;;;;5015647;28;44671;-58
2023/08/28 02:26:56;;;;;;;1.17;0.60;;;22.90;97.30;;;;;;5023298;28;48417;-58
2023/08/28 02:29:23;;;;;;;0.50;0.50;;;22.90;97.20;;;;;;5022622;28;45997;-58
2023/08/28 02:31:51;;;;;;;0.40;0.40;;;22.90;97.30;;;;;;5020277;28;45238;-58
2023/08/28 02:34:18;;;;;;;0.55;0.40;;;22.90;97.30;;;;;;5022274;28;44686;-58
2023/08/28 02:36:44;;;;;;;0.43;0.40;;;22.90;97.20;;;;;;5021321;28;47115;-58
2023/08/28 02:39:11;;;;;;;0.65;0.50;;;22.90;97.10;;;;;;5024638;28;45095;-58
2023/08/28 02:41:38;;;;;;;0.50;0.50;;;22.90;96.90;;;;;;5015608;28;45107;-58
2023/08/28 02:44:05;;;;;;;0.75;0.57;;;22.90;97.00;;;;;;5016053;28;45297;-58
2023/08/28 02:46:32;;;;;;;0.50;0.50;;;22.90;97.00;;;;;;5012942;28;47952;-58
2023/08/28 02:49:00;;;;;;;1.48;0.57;;;22.90;97.00;;;;;;5023671;28;45104;-58
2023/08/28 02:51:26;;;;;;;0.38;0.38;;;22.90;96.90;;;;;;5017348;28;45111;-58
2023/08/28 02:53:53;;;;;;;2.33;0.50;;;22.90;96.90;;;;;;5025289;28;45128;-58
2023/08/28 02:56:25;;;;;;;0.65;0.50;;;22.90;97.30;;;;;;5011230;28;45370;-58
2023/08/28 02:58:52;;;;;;;1.38;0.40;;;22.90;96.80;;;;;;5020920;28;45195;-58
2023/08/28 03:01:20;;;;;;;6.10;0.40;;;22.90;96.70;;;;;;5024108;28;45056;-58
2023/08/28 03:03:47;;;;;;;0.45;0.40;;;22.90;96.80;;;;;;5019963;28;45138;-57
2023/08/28 03:06:15;;;;;;;0.45;0.40;;;22.90;96.70;;;;;;5024045;28;45269;-58
2023/08/28 03:08:42;;;;;;;0.60;0.47;;;22.90;96.80;;;;;;5025614;28;45181;-58
2023/08/28 03:11:09;;;;;;;1.27;0.70;;;22.90;96.60;;;;;;5023626;28;45277;-58
2023/08/28 03:13:35;;;;;;;1.48;0.40;;;22.90;96.50;;;;;;5021853;28;45092;-58
2023/08/28 03:16:03;;;;;;;0.47;0.47;;;22.90;96.60;;;;;;5011881;28;47213;-58
2023/08/28 03:18:30;;;;;;;0.65;0.55;;;22.90;96.50;;;;;;5019544;28;45317;-58
2023/08/28 03:20:56;;;;;;;0.80;0.50;;;22.90;96.60;;;;;;5020072;28;45072;-58
2023/08/28 03:23:25;;;;;;;0.77;0.50;;;22.90;96.50;;;;;;5023205;28;45409;-57
2023/08/28 03:25:51;;;;;;;0.50;0.47;;;22.90;96.50;;;;;;5022107;28;46232;-58
2023/08/28 03:28:18;;;;;;;0.70;0.50;;;22.90;96.60;;;;;;5025005;28;44592;-58
2023/08/28 03:30:45;;;;;;;0.73;0.40;;;22.90;96.50;;;;;;5018808;28;45289;-58
2023/08/28 03:33:12;;;;;;;0.30;0.30;;;22.90;96.50;;;;;;5020452;28;45198;-58
2023/08/28 03:35:38;;;;;;;0.63;0.50;;;22.90;96.50;;;;;;5019886;28;47076;-58
2023/08/28 03:38:05;;;;;;;2.05;0.50;;;22.90;96.50;;;;;;5017479;28;45302;-58
2023/08/28 03:40:34;;;;;;;1.13;0.50;;;22.90;96.40;;;;;;5019526;28;45321;-58
2023/08/28 03:43:01;;;;;;;0.63;0.50;;;22.90;96.50;;;;;;5018019;28;45072;-58
2023/08/28 03:45:28;;;;;;;1.38;0.32;;;22.90;96.50;;;;;;5021096;28;46056;-58
2023/08/28 03:47:55;;;;;;;1.33;0.50;;;22.90;96.40;;;;;;5018065;28;45200;-58
2023/08/28 03:50:22;;;;;;;1.13;0.55;;;22.90;96.40;;;;;;5019967;28;45151;-58
2023/08/28 03:52:49;;;;;;;0.35;0.32;;;22.90;96.40;;;;;;5022975;28;45222;-58
2023/08/28 03:55:16;;;;;;;1.13;0.50;;;22.90;96.40;;;;;;5024399;28;45136;-58
2023/08/28 03:57:44;;;;;;;0.73;0.50;;;22.90;96.40;;;;;;5021496;28;45108;-58
2023/08/28 04:00:13;;;;;;;1.40;0.50;;;22.90;96.40;;;;;;5022175;28;45163;-58
2023/08/28 04:02:39;;;;;;;0.57;0.40;;;22.90;96.30;;;;;;5020301;28;45318;-58
2023/08/28 04:05:08;;;;;;;0.50;0.40;;;22.90;96.20;;;;;;5022313;28;47306;-58
2023/08/28 04:07:35;;;;;;;2.42;0.43;;;22.90;96.20;;;;;;5008053;28;44522;-58
2023/08/28 04:10:02;;;;;;;0.52;0.40;;;22.90;96.20;;;;;;5019733;28;45149;-58
2023/08/28 04:12:29;;;;;;;1.17;0.40;;;22.90;96.20;;;;;;5016369;28;44805;-58
2023/08/28 04:14:57;;;;;;;0.50;0.40;;;22.90;96.20;;;;;;5022881;28;46035;-57
2023/08/28 04:17:24;;;;;;;0.68;0.55;;;22.90;96.10;;;;;;5018423;28;45175;-56
2023/08/28 04:19:52;;;;;;;0.52;0.50;;;22.90;96.10;;;;;;5024461;28;45160;-56
2023/08/28 04:22:20;;;;;;;0.57;0.50;;;22.90;96.10;;;;;;5020638;28;45515;-56
2023/08/28 04:24:47;;;;;;;2.35;0.50;;;22.90;96.10;;;;;;5022421;28;46512;-58
2023/08/28 04:27:14;;;;;;;0.80;0.50;;;22.90;96.00;;;;;;5016119;28;45080;-58
2023/08/28 04:29:41;;;;;;;1.65;0.55;;;22.90;96.00;;;;;;5023053;28;45063;-58
2023/08/28 04:32:10;;;;;;;0.45;0.40;;;22.80;96.00;;;;;;5017545;28;44659;-58
2023/08/28 04:34:37;;;;;;;1.30;0.47;;;22.80;96.00;;;;;;5023172;28;45807;-58
2023/08/28 04:37:04;;;;;;;0.50;0.50;;;22.80;95.90;;;;;;5023228;28;45170;-58
2023/08/28 04:39:30;;;;;;;0.40;0.40;;;22.80;95.90;;;;;;5020257;28;45056;-58
2023/08/28 04:41:57;;;;;;;0.43;0.35;;;22.80;95.90;;;;;;5012433;28;45131;-57
2023/08/28 04:44:24;;;;;;;0.60;0.60;;;22.80;95.90;;;;;;5020981;28;45304;-57
2023/08/28 04:46:51;;;;;;;1.27;0.50;;;22.80;95.80;;;;;;5023259;28;45238;-57
2023/08/28 04:49:19;;;;;;;0.50;0.40;;;22.80;95.80;;;;;;5020383;28;45162;-57
2023/08/28 04:51:46;;;;;;;0.85;0.40;;;22.80;95.80;;;;;;5020828;28;45239;-58
2023/08/28 04:54:12;;;;;;;1.55;0.57;;;22.80;96.20;;;;;;5023319;28;46058;-58
2023/08/28 04:56:39;;;;;;;0.68;0.50;;;22.80;95.60;;;;;;5020944;28;45096;-58
2023/08/28 04:59:06;;;;;;;1.25;0.30;;;22.80;95.60;;;;;;5017873;28;45158;-57
2023/08/28 05:01:33;;;;;;;0.68;0.50;;;22.80;95.60;;;;;;5020602;28;45277;-58
2023/08/28 05:04:00;;;;;;;0.35;0.35;;;22.80;95.50;;;;;;5015620;28;47306;-58
2023/08/28 05:06:28;;;;;;;0.60;0.55;;;22.80;95.50;;;;;;5020645;28;45162;-58
2023/08/28 05:08:55;;;;;;;0.73;0.60;;;22.90;95.60;;;;;;5014891;28;45250;-56
2023/08/28 05:11:22;;;;;;;0.75;0.30;;;22.90;95.50;;;;;;5023815;28;45094;-56
2023/08/28 05:13:49;;;;;;;0.85;0.40;;;22.90;95.50;;;;;;5020256;28;47114;-56
2023/08/28 05:16:15;;;;;;;0.90;0.55;;;22.90;95.50;;;;;;5021914;28;45096;-57
2023/08/28 05:18:42;;;;;;;0.73;0.57;;;22.90;95.40;;;;;;5019736;28;45186;-56
2023/08/28 05:21:09;;;;;;;1.02;0.50;;;22.90;95.50;;;;;;5022427;28;45139;-56
2023/08/28 05:23:37;;;;;;;0.40;0.40;;;22.90;95.40;;;;;;5018132;28;46404;-57
2023/08/28 05:26:04;;;;;;;0.70;0.55;;;22.90;95.40;;;;;;5022693;28;45125;-57
2023/08/28 05:28:34;;;;;;;0.50;0.40;;;22.90;95.40;;;;;;5022961;28;45200;-58
2023/08/28 05:31:01;;;;;;;0.57;0.43;;;22.90;95.30;;;;;;5021938;28;45139;-58
2023/08/28 05:33:28;;;;;;;1.15;0.50;;;22.90;95.30;;;;;;5018234;28;46538;-58
2023/08/28 05:35:55;;;;;;;0.95;0.50;;;22.70;95.20;;;;;;5019728;28;45116;-60
2023/08/28 05:38:22;;;;;;;6.72;1.05;;;22.90;95.20;;;;;;5022549;28;45154;-56
2023/08/28 05:40:50;;;;;;;3.63;0.80;;;22.90;95.30;;;;;;5021073;28;45068;-56
2023/08/28 05:43:16;;;;;;;4.43;0.80;;;22.90;95.30;;;;;;5019920;28;45201;-56
2023/08/28 05:45:43;;;;;;;6.20;0.90;;;22.90;95.40;;;;;;5015693;28;45105;-56
2023/08/28 05:48:10;;;;;;;2.08;0.80;;;22.90;95.10;;;;;;5019717;28;45244;-56
2023/08/28 05:50:39;;;;;;;1.35;0.60;;;22.90;95.10;;;;;;5023306;28;45164;-56
2023/08/28 05:53:06;;;;;;;0.98;0.50;;;22.90;95.10;;;;;;5023754;28;47587;-56
2023/08/28 05:55:33;;;;;;;1.98;0.75;;;22.90;95.10;;;;;;5022181;28;45173;-56
2023/08/28 05:58:01;;;;;;;1.52;0.63;;;22.90;95.10;;;;;;5021294;28;45183;-56
2023/08/28 06:00:30;;;;;;;0.93;0.60;;;22.90;95.10;;;;;;5018727;28;45230;-56
2023/08/28 06:02:56;;;;;;;1.40;0.70;;;22.90;95.10;;;;;;5021532;28;46981;-56
2023/08/28 06:05:24;;;;;;;1.52;0.70;;;22.90;95.10;;;;;;5026106;28;44671;-56
2023/08/28 06:07:50;;;;;;;0.75;0.50;;;22.90;95.10;;;;;;5018798;28;45139;-56
2023/08/28 06:10:19;;;;;;;0.50;0.50;;;22.90;95.10;;;;;;5018055;28;45310;-56
2023/08/28 06:12:46;;;;;;;1.88;0.60;;;22.90;95.10;;;;;;5017062;28;45265;-56
2023/08/28 06:15:15;;;;;;;0.73;0.60;;;22.90;95.10;;;;;;5024657;28;45059;-56
2023/08/28 06:17:42;;;;;;;0.60;0.40;;;22.90;95.10;;;;;;5014710;28;45105;-56
2023/08/28 06:20:10;;;;;;;1.23;0.60;;;22.90;95.10;;;;;;5024924;28;45381;-56
2023/08/28 06:22:37;;;;;;;0.70;0.52;;;22.90;95.10;;;;;;5022872;28;47311;-56
2023/08/28 06:25:05;;;;;;;1.50;0.70;;;22.90;95.10;;;;;;5022690;28;45343;-56
2023/08/28 06:27:32;;;;;;;0.60;0.50;;;22.90;95.10;;;;;;5011689;28;45174;-56
2023/08/28 06:29:58;;;;;;;1.67;0.60;;;22.90;95.10;;;;;;5016341;28;45329;-56
2023/08/28 06:32:27;;;;;;;1.48;0.60;;;22.90;95.10;;;;;;5013392;28;46128;-56
2023/08/28 06:34:53;;;;;;;1.40;0.60;;;22.90;95.10;;;;;;5024413;28;44573;-56
2023/08/28 06:37:20;;;;;;;1.20;0.40;;;22.90;95.10;;;;;;5026000;28;45111;-56
2023/08/28 06:39:47;;;;;;;0.43;0.40;;;22.90;95.10;;;;;;5026365;28;44654;-56
2023/08/28 06:42:13;;;;;;;1.85;0.82;;;22.90;95.10;;;;;;5016388;28;46032;-56
2023/08/28 06:44:40;;;;;;;1.00;0.57;;;22.90;95.10;;;;;;5025985;28;45153;-56
2023/08/28 06:47:07;;;;;;;0.57;0.50;;;22.90;95.10;;;;;;5024329;28;45121;-56
2023/08/28 06:49:35;;;;;;;1.48;0.55;;;22.90;95.10;;;;;;5022925;28;45286;-56
2023/08/28 06:52:03;;;;;;;1.48;0.68;;;22.90;95.10;;;;;;5024919;28;45142;-56
2023/08/28 06:54:32;;;;;;;0.63;0.43;;;22.90;95.10;;;;;;5025932;28;45372;-56
2023/08/28 06:56:59;;;;;;;2.00;0.55;;;22.90;95.10;;;;;;5015309;28;44616;-56
2023/08/28 06:59:26;;;;;;;1.20;0.70;;;22.90;95.10;;;;;;5025822;28;45117;-56
2023/08/28 07:01:52;;;;;;;0.80;0.77;;;22.90;95.10;;;;;;5024355;28;45187;-56
2023/08/28 07:04:19;;;;;;;0.75;0.55;;;22.90;95.20;;;;;;5019733;28;45096;-56
2023/08/28 07:06:47;;;;;;;1.02;0.68;;;22.90;95.20;;;;;;5012442;28;45167;-56
2023/08/28 07:09:14;;;;;;;0.88;0.52;;;22.90;95.30;;;;;;5021686;28;45081;-56
2023/08/28 07:11:41;;;;;;;1.23;0.50;;;22.90;95.40;;;;;;5025540;28;47147;-56
2023/08/28 07:14:08;;;;;;;1.10;0.55;;;22.90;95.40;;;;;;5023256;28;45055;-56
2023/08/28 07:16:35;;;;;;;0.52;0.50;;;22.90;95.50;;;;;;5017065;28;44694;-56
2023/08/28 07:19:02;;;;;;;0.77;0.68;;;22.90;95.50;;;;;;5025151;28;45166;-56
2023/08/28 07:21:28;;;;;;;1.45;0.43;;;22.90;95.60;;;;;;5019941;28;45295;-56
2023/08/28 07:23:57;;;;;;;1.65;0.65;;;22.90;95.60;;;;;;5019343;28;45117;-56
2023/08/28 07:26:23;;;;;;;0.68;0.50;;;22.90;96.00;;;;;;5017372;28;45112;-56
2023/08/28 07:28:50;;;;;;;0.90;0.70;;;22.90;95.70;;;;;;5025605;28;45147;-56
2023/08/28 07:31:17;;;;;;;0.90;0.73;;;22.90;95.70;;;;;;5024373;28;45158;-56
2023/08/28 07:33:44;;;;;;;1.58;0.70;;;22.90;95.80;;;;;;5022035;28;45075;-56
2023/08/28 07:36:10;;;;;;;1.02;0.60;;;22.90;95.80;;;;;;5016498;28;45201;-56
2023/08/28 07:38:37;;;;;;;0.40;0.40;;;22.90;95.80;;;;;;5023855;28;45086;-56
2023/08/28 07:41:05;;;;;;;2.50;0.60;;;22.90;95.80;;;;;;5021934;28;47952;-56
2023/08/28 07:43:32;;;;;;;1.50;0.70;;;22.90;95.90;;;;;;5021879;28;45146;-56
2023/08/28 07:45:59;;;;;;;0.70;0.40;;;22.90;95.80;;;;;;5023926;28;45387;-56
2023/08/28 07:48:25;;;;;;;0.80;0.60;;;22.90;95.90;;;;;;5013751;28;45294;-56
2023/08/28 07:50:52;;;;;;;1.85;0.70;;;22.90;95.90;;;;;;5010758;28;47310;-56
2023/08/28 07:53:20;;;;;;;1.10;0.60;;;22.90;96.00;;;;;;5020480;28;45170;-56
2023/08/28 07:55:47;;;;;;;2.58;0.60;;;22.90;96.00;;;;;;5012567;28;45327;-56
2023/08/28 07:58:15;;;;;;;1.10;0.52;;;22.90;96.00;;;;;;5018187;28;45176;-56
2023/08/28 08:00:43;;;;;;;1.70;0.68;;;22.90;96.00;;;;;;5020166;28;45593;-56
2023/08/28 08:03:09;;;;;;;2.40;0.75;;;22.90;96.10;;;;;;5016232;28;45194;-56
2023/08/28 08:05:36;;;;;;;1.10;0.60;;;22.90;96.10;;;;;;5023703;28;45150;-56
2023/08/28 08:08:04;;;;;;;0.50;0.50;;;22.90;96.10;;;;;;5018398;28;45306;-56
2023/08/28 08:10:32;;;;;;;1.13;0.50;;;22.90;96.10;;;;;;5019687;28;47287;-56
2023/08/28 08:12:58;;;;;;;1.85;0.60;;;22.90;96.10;;;;;;5017154;28;45150;-56
2023/08/28 08:15:26;;;;;;;0.82;0.63;;;22.90;96.20;;;;;;5021622;28;45132;-56
2023/08/28 08:17:53;;;;;;;1.10;0.70;;;22.90;96.20;;;;;;5018247;28;45159;-56
2023/08/28 08:20:20;;;;;;;2.15;0.68;;;22.90;96.20;;;;;;5017261;28;47309;-56
2023/08/28 08:22:47;;;;;;;2.28;0.47;;;22.90;96.20;;;;;;5017112;28;45134;-56
2023/08/28 08:25:14;;;;;;;0.93;0.70;;;22.90;96.20;;;;;;5021137;28;45160;-56
2023/08/28 08:27:44;;;;;;;1.05;0.73;;;22.90;96.20;;;;;;5015119;28;45300;-56
2023/08/28 08:30:13;;;;;;;3.10;0.80;;;22.90;96.30;;;;;;5022658;28;47303;-56
2023/08/28 08:32:43;;;;;;;1.15;0.70;;;22.90;96.30;;;;;;5019097;28;45310;-57
2023/08/28 08:35:12;;;;;;;1.20;0.68;;;22.90;96.30;;;;;;5021633;28;45258;-57
2023/08/28 08:37:39;;;;;;;18.98;2.35;;;22.90;96.30;;;;;;5017464;28;45436;-57
2023/08/28 08:40:13;;;;;;;12.95;2.08;;;23.00;96.50;;;;;;5018000;28;45295;-57
2023/08/28 08:42:40;;;;;;;19.00;1.60;;;23.00;96.50;;;;;;5011758;28;45452;-58
2023/08/28 08:45:08;;;;;;;12.00;1.45;;;23.00;96.50;;;;;;5021272;28;45182;-57
2023/08/28 08:47:36;;;;;;;6.28;1.00;;;23.00;96.40;;;;;;5018011;28;45115;-58
2023/08/28 08:50:08;;;;;;;6.93;1.00;;;23.00;96.40;;;;;;5020893;28;46030;-58
2023/08/28 08:52:38;;;;;;;6.05;0.98;;;23.00;96.40;;;;;;5022697;28;45646;-57
2023/08/28 08:55:13;;;;;;;5.70;1.00;;;23.00;96.40;;;;;;5024609;28;45125;-58
2023/08/28 08:57:43;;;;;;;2.08;1.00;;;23.00;96.40;;;;;;5022442;28;45130;-58
2023/08/28 09:00:13;;;;;;;3.05;0.80;;;23.00;96.40;;;;;;5010812;28;47347;-58
2023/08/28 09:02:42;;;;;;;2.72;0.90;;;23.00;96.40;;;;;;5017178;28;45259;-57
2023/08/28 09:05:11;;;;;;;1.63;1.02;;;23.00;96.80;;;;;;5023524;28;45083;-57
2023/08/28 09:07:38;;;;;;;1.92;0.60;;;23.00;96.40;;;;;;5021311;28;45139;-58
2023/08/28 09:10:05;;;;;;;1.45;0.60;;;23.00;96.50;;;;;;5023350;28;47620;-58
2023/08/28 09:12:32;;;;;;;0.77;0.55;;;23.00;96.50;;;;;;5020675;28;45250;-57
2023/08/28 09:14:59;;;;;;;1.65;0.50;;;23.00;96.40;;;;;;5021168;28;45147;-58
2023/08/28 09:17:26;;;;;;;1.17;0.70;;;23.00;96.50;;;;;;5021356;28;45196;-57
2023/08/28 09:19:53;;;;;;;11.80;0.80;;;23.00;96.50;;;;;;5021360;28;45918;-57
2023/08/28 09:22:25;;;;;;;0.65;0.63;;;23.00;96.50;;;;;;5014926;28;45340;-58
2023/08/28 09:24:52;;;;;;;1.10;0.50;;;23.00;96.50;;;;;;5016908;28;45100;-57
2023/08/28 09:27:19;;;;;;;1.60;0.73;;;23.00;96.50;;;;;;5023012;28;45116;-58
2023/08/28 09:29:46;;;;;;;2.70;0.60;;;23.00;96.50;;;;;;5020980;28;45198;-58
2023/08/28 09:32:13;;;;;;;3.33;0.70;;;23.00;96.60;;;;;;5020435;28;45131;-57
2023/08/28 09:34:41;;;;;;;1.55;0.60;;;23.00;96.70;;;;;;5020402;28;45288;-58
2023/08/28 09:37:10;;;;;;;1.73;0.70;;;23.00;96.80;;;;;;5022677;28;45163;-58
2023/08/28 09:39:40;;;;;;;0.52;0.43;;;23.00;96.80;;;;;;5012529;28;45269;-57
2023/08/28 09:42:08;;;;;;;1.40;0.65;;;23.00;96.80;;;;;;5020200;28;45123;-58
2023/08/28 09:44:37;;;;;;;1.70;0.60;;;23.00;96.90;;;;;;5013400;28;45084;-58
2023/08/28 09:47:05;;;;;;;0.63;0.60;;;23.00;96.90;;;;;;5016840;28;44855;-58
2023/08/28 09:49:32;;;;;;;2.25;0.65;;;23.00;97.00;;;;;;5014632;28;46167;-58
2023/08/28 09:52:00;;;;;;;0.90;0.60;;;23.00;96.90;;;;;;5014765;28;45064;-58
2023/08/28 09:54:27;;;;;;;2.42;0.52;;;23.00;96.80;;;;;;5019073;28;45246;-57
2023/08/28 09:56:55;;;;;;;0.95;0.60;;;23.00;96.80;;;;;;5014693;28;45167;-58
2023/08/28 09:59:22;;;;;;;0.50;0.47;;;23.00;96.80;;;;;;5015936;28;45247;-58
2023/08/28 10:01:50;;;;;;;1.90;0.90;;;23.00;96.80;;;;;;5006072;28;44663;-58
2023/08/28 10:04:20;;;;;;;0.82;0.60;;;23.00;96.80;;;;;;5016347;28;45280;-58
2023/08/28 10:06:49;;;;;;;2.28;0.80;;;23.00;96.80;;;;;;5015192;28;45091;-58
2023/08/28 10:09:19;;;;;;;1.45;0.65;;;23.00;96.80;;;;;;5022560;28;46578;-58
2023/08/28 10:11:47;;;;;;;1.67;0.55;;;23.00;96.80;;;;;;5021337;28;45400;-58
2023/08/28 10:14:16;;;;;;;0.93;0.50;;;23.00;96.50;;;;;;5023406;28;45285;-58
2023/08/28 10:16:47;;;;;;;1.38;0.60;;;23.00;96.20;;;;;;5020985;28;45237;-57
2023/08/28 10:19:19;;;;;;;0.52;0.47;;;23.00;96.20;;;;;;5021339;28;47877;-58
2023/08/28 10:21:46;;;;;;;0.77;0.68;;;23.00;95.80;;;;;;5022229;28;45189;-58
2023/08/28 10:24:14;;;;;;;1.35;0.50;;;23.00;96.00;;;;;;5022360;28;45165;-58
2023/08/28 10:26:43;;;;;;;4.70;0.60;;;23.00;96.20;;;;;;5021078;28;45439;-58
2023/08/28 10:29:11;;;;;;;1.88;0.60;;;23.00;96.30;;;;;;5019325;28;46236;-56
2023/08/28 10:31:40;;;;;;;2.97;0.70;;;23.00;96.30;;;;;;5014634;28;45059;-57
2023/08/28 10:34:09;;;;;;;0.82;0.50;;;23.00;96.40;;;;;;5017085;28;45159;-57
2023/08/28 10:36:37;;;;;;;1.58;0.80;;;23.00;96.40;;;;;;5023473;28;45984;-57
2023/08/28 10:39:04;;;;;;;1.85;0.80;;;23.00;96.50;;;;;;5016737;28;45099;-58
2023/08/28 10:41:32;;;;;;;1.13;0.95;;;23.00;96.40;;;;;;5015081;28;45126;-58
2023/08/28 10:44:03;;;;;;;1.25;0.60;;;23.00;96.50;;;;;;5017698;28;45166;-58
2023/08/28 10:46:30;;;;;;;1.35;0.73;;;23.00;96.60;;;;;;5017344;28;45125;-58
2023/08/28 10:49:00;;;;;;;1.50;0.60;;;23.00;96.60;;;;;;5021182;28;45167;-62
2023/08/28 10:51:35;;;;;;;6.00;0.80;;;23.00;96.70;;;;;;5018153;28;45188;-58
2023/08/28 10:54:03;;;;;;;5.80;1.23;;;23.00;97.90;;;;;;5017656;28;45795;-58
2023/08/28 10:56:33;;;;;;;10.32;1.30;;;23.00;99.10;;;;;;4991200;28;45027;-59
2023/08/28 10:59:23;;;;;;;5.10;1.13;;;22.90;98.70;;;;;;5014546;28;46247;-59
2023/08/28 11:01:52;;;;;;;16.38;1.40;;;23.00;99.30;;;;;;5013146;28;45184;-59
2023/08/28 11:04:21;;;;;;;23.70;1.52;;;22.90;99.00;;;;;;5015741;28;45381;-59
2023/08/28 11:06:48;;;;;;;10.48;1.10;;;22.90;99.40;;;;;;5014787;28;45124;-59
2023/08/28 11:09:35;;;;;;;3.92;1.00;;;22.90;99.60;;;;;;5016153;28;47966;-59
2023/08/28 11:12:24;;;;;;;2.15;0.77;;;22.90;99.90;;;;;;5015111;28;45331;-59
2023/08/28 11:15:03;;;;;;;1.20;0.80;;;22.90;99.90;;;;;;5017692;28;45315;-59
2023/08/28 11:17:31;;;;;;;4.20;0.50;;;22.90;99.90;;;;;;5020438;28;45130;-59
2023/08/28 11:20:05;;;;;;;2.38;0.70;;;22.90;99.90;;;;;;5021014;28;45157;-59
2023/08/28 11:22:32;;;;;;;3.78;0.70;;;22.90;99.90;;;;;;5020993;28;45206;-59
2023/08/28 11:25:00;;;;;;;3.58;0.80;;;22.90;99.90;;;;;;5023481;28;45714;-59
2023/08/28 11:27:34;;;;;;;1.50;0.70;;;22.90;99.90;;;;;;5025323;28;45230;-58
2023/08/28 11:30:05;;;;;;;1.05;0.60;;;22.90;99.90;;;;;;5025384;28;45204;-57
2023/08/28 11:32:33;;;;;;;2.10;0.50;;;22.90;99.90;;;;;;5021641;28;45088;-58
2023/08/28 11:35:04;;;;;;;2.20;0.60;;;22.90;99.90;;;;;;5021211;28;45340;-58
2023/08/28 11:37:32;;;;;;;1.52;0.50;;;22.90;99.90;;;;;;5022910;28;45189;-59
2023/08/28 11:40:00;;;;;;;2.20;0.60;;;22.90;99.90;;;;;;5024682;28;45246;-59
2023/08/28 11:42:26;;;;;;;3.08;0.50;;;22.90;99.90;;;;;;5021437;28;45158;-59
2023/08/28 11:44:53;;;;;;;1.45;0.60;;;22.90;99.90;;;;;;5016746;28;45067;-59
2023/08/28 11:47:26;;;;;;;0.75;0.50;;;22.90;99.90;;;;;;5012905;28;45119;-59
2023/08/28 11:49:54;;;;;;;1.33;0.50;;;22.90;99.90;;;;;;5016247;28;46797;-59
2023/08/28 11:52:22;;;;;;;0.80;0.60;;;22.90;99.90;;;;;;5009176;28;45127;-59
2023/08/28 11:54:50;;;;;;;1.83;0.73;;;22.90;99.90;;;;;;5019002;28;44572;-59
2023/08/28 11:57:17;;;;;;;0.70;0.50;;;22.90;99.90;;;;;;5016782;28;45208;-59
2023/08/28 11:59:45;;;;;;;0.77;0.50;;;22.90;99.90;;;;;;5024520;28;47264;-59
2023/08/28 12:02:14;;;;;;;0.68;0.40;;;22.90;99.90;;;;;;5014147;28;45204;-59
2023/08/28 12:04:41;;;;;;;1.42;0.40;;;22.90;99.90;;;;;;5024152;28;45278;-59
2023/08/28 12:07:17;;;;;;;1.73;0.50;;;22.90;99.90;;;;;;5016016;28;45266;-59
2023/08/28 12:09:47;;;;;;;0.73;0.47;;;22.90;99.90;;;;;;5017498;28;45199;-59
2023/08/28 12:12:15;;;;;;;1.20;0.43;;;22.90;99.90;;;;;;5016099;28;45175;-59
2023/08/28 12:14:44;;;;;;;0.70;0.50;;;22.90;99.90;;;;;;5005092;28;45176;-59
2023/08/28 12:17:14;;;;;;;0.65;0.50;;;22.90;99.90;;;;;;5003847;28;45387;-57
2023/08/28 12:19:41;;;;;;;1.08;0.55;;;22.90;99.90;;;;;;5009651;28;47280;-57
2023/08/28 12:22:11;;;;;;;0.90;0.60;;;22.90;99.90;;;;;;5014144;28;45208;-58
2023/08/28 12:24:41;;;;;;;0.73;0.70;;;22.90;99.90;;;;;;5024608;28;45197;-58
2023/08/28 12:27:10;;;;;;;0.85;0.40;;;22.90;99.90;;;;;;5021504;28;45293;-57
2023/08/28 12:29:37;;;;;;;0.57;0.40;;;22.90;99.90;;;;;;5014115;28;46359;-57
2023/08/28 12:32:06;;;;;;;1.02;0.52;;;23.00;99.90;;;;;;5017679;28;44663;-58
2023/08/28 12:34:33;;;;;;;1.08;0.47;;;23.00;99.90;;;;;;5024090;28;45168;-59
2023/08/28 12:37:07;;;;;;;0.57;0.40;;;23.00;99.90;;;;;;5015498;28;45206;-57
2023/08/28 12:39:35;;;;;;;0.47;0.30;;;23.00;99.90;;;;;;5019795;28;45228;-57
2023/08/28 12:42:03;;;;;;;0.32;0.32;;;23.00;99.90;;;;;;5020905;28;45711;-57
2023/08/28 12:44:31;;;;;;;0.75;0.50;;;23.00;99.90;;;;;;5020860;28;45224;-58
2023/08/28 12:46:58;;;;;;;1.15;0.60;;;23.00;99.90;;;;;;5019388;28;45436;-59
2023/08/28 12:49:26;;;;;;;1.52;0.40;;;23.00;99.90;;;;;;5014393;28;46244;-59